Muskogee, Oklahoma
Current Conditions -  °F | °C
As of 10:53 PM on Saturday 25 Oct 2014 (Local Time) from KMKO Reporting Station
Clear Clear  
Wind Chill: 66°   Ceiling: Unl
Heat Index: 66°   Visibility: 10mi
Dew Point: 62°   Wind: 6mph
Humidity: 87%   Direction: 150°SSE
Pressure: 30.02"   Gusts: NA
Location:  35.75°N, 95.37°W
Report Text: KMKO 260353Z AUTO 15005KT 10SM CLR 19/17 A3002 RMK AO2 SLP160 T01890167
Loading
Personal Weather Stations






























Interactive Weather Map
Tropical Storm Tracking
New forecast layout! Learn more

10-Day Weather Forecast

Advertisements
Track Severe Weather on mobile